Airfield :
LOGIN :

Register | Disclaimer

   EN    FR    IT 

 










Legend :    VFR   Marginal VFR   IFR   Intensive IFR   Very Intensive IFR
Visi :
Ceiling :
>= 8 km
>= 3000ft
5 to 8 km
1000 to 3000 ft
1500m to 5 km
500 to 1000 ft
800 to 1500m
200 to 500 ft
< 800m
< 200 ft
Symbols :   Thunderstorms  Fog  Heavy snow  Heavy precipitations  Wind > 20 kt
SIGMETs :     Misc.  Thunderstorms  Icing  Turbulence  Mountain Waves  Volcanic Ashes






- Airport Elevation : 297 ft
- IATA code : BBU


LRBS - Bucarest - Baneasa Aurel Vlaicu

CURRENT METAR :
  • 021200Z 09008KT CAVOK 11/M09 Q1016 NOSIG

EXPIRED METARs :
  • 021130Z 09007KT 060V130 CAVOK 11/M09 Q1017 NOSIG
  • 021100Z 06007KT CAVOK 11/M10 Q1017 NOSIG
  • 021030Z AUTO 09009KT 9999 NCD 10/M11 Q1017 NOSIG
  • 021000Z 09006KT 020V140 CAVOK 10/M10 Q1017 NOSIG
  • 020930Z 06006KT 360V110 CAVOK 10/M08 Q1017 NOSIG

TAF TAF LRBS
Valid from the 02 at 12:00 until the 03 at 12:00 UTC


021100Z 0212/0312 VRB04KT CAVOK



MET'MAP, your aeronautical weather chart ! - Copyright ORBIFLY December 2007 - Disclaimer

ORBIFLY MET'MAP TEAM :

Programming & Development : Alexandra Zaïnal
Concept & original design : Baudouin d'Aumeries
Assistance for programming : Marc-Olivier Méhu
Technical & hardware support : Manuel Goepfert

Contact : metmap@orbifly.com




SOURCES & CREDITS :

   NOAA